createdAt,value
2022-10-01T00:01:42.142Z,99622.88
2022-10-01T00:05:44.253Z,99626.75
2022-10-01T00:09:46.649Z,99639.44
2022-10-01T00:13:48.529Z,99636.81
2022-10-01T00:17:52.696Z,99653.84
2022-10-01T00:21:54.490Z,99644.56
2022-10-01T00:25:56.428Z,99649.88
2022-10-01T00:29:58.204Z,99648.53
2022-10-01T00:34:02.630Z,99660.69
2022-10-01T00:38:04.539Z,99650.56
2022-10-01T00:42:32.768Z,99653.31
2022-10-01T00:46:41.885Z,99664.59
2022-10-01T00:50:43.736Z,99651.88
2022-10-01T00:54:50.850Z,99644.44
2022-10-01T00:58:56.211Z,99643.25
2022-10-01T01:02:58.033Z,99648.31
2022-10-01T01:07:01.272Z,99641.88
2022-10-01T01:12:07.296Z,99633.41
2022-10-01T01:16:27.932Z,99644.56
2022-10-01T01:21:02.701Z,99640.69
2022-10-01T01:25:17.883Z,99621.63
2022-10-01T01:29:43.249Z,99629.47
2022-10-01T01:33:46.208Z,99619.03
2022-10-01T01:37:53.540Z,99623.44
2022-10-01T01:41:58.325Z,99607.81
2022-10-01T01:46:01.444Z,99601.41
2022-10-01T01:50:03.398Z,99596.88
2022-10-01T01:54:05.222Z,99604.84
2022-10-01T01:58:08.173Z,99599.38
2022-10-01T02:02:30.458Z,99611.16
2022-10-01T02:06:54.358Z,99608.16
2022-10-01T02:11:35.730Z,99612.13
2022-10-01T02:15:52.487Z,99608.16
2022-10-01T02:20:14.404Z,99606.81
2022-10-01T02:24:53.734Z,99598.31
2022-10-01T02:29:01.385Z,99599.53
2022-10-01T02:33:04.453Z,99594.19
2022-10-01T02:37:06.360Z,99599.91
2022-10-01T02:41:09.517Z,99593.78
2022-10-01T02:45:11.369Z,99586.78
2022-10-01T02:49:16.274Z,99581.59
2022-10-01T02:53:27.602Z,99582.69
2022-10-01T02:57:29.818Z,99579.69
2022-10-01T03:01:32.066Z,99572.03
2022-10-01T03:05:34.267Z,99568.31
2022-10-01T03:09:36.932Z,99580.91
2022-10-01T03:13:38.889Z,99581.88
2022-10-01T03:17:40.820Z,99575.31
2022-10-01T03:21:42.703Z,99566.81
2022-10-01T03:25:44.684Z,99572.72
2022-10-01T03:29:46.642Z,99574.06
2022-10-01T03:33:48.568Z,99581.88
2022-10-01T03:37:50.661Z,99565.19
2022-10-01T03:41:52.512Z,99569.97
2022-10-01T03:45:55.594Z,99573.38
2022-10-01T03:49:57.498Z,99577.63
2022-10-01T03:53:59.785Z,99576.69
2022-10-01T03:58:02.276Z,99575.16
2022-10-01T04:02:04.256Z,99584.50
2022-10-01T04:06:06.429Z,99571.88
2022-10-01T04:10:09.162Z,99552.31
2022-10-01T04:14:11.074Z,99536.69
2022-10-01T04:18:13.102Z,99537.22
2022-10-01T04:22:15.044Z,99531.06
2022-10-01T04:26:19.071Z,99537.91
2022-10-01T04:30:21.217Z,99539.44
2022-10-01T04:34:43.080Z,99536.16
2022-10-01T04:38:45.019Z,99542.84
2022-10-01T04:42:47.257Z,99534.59
2022-10-01T04:46:49.231Z,99540.53
2022-10-01T04:50:51.212Z,99541.16
2022-10-01T04:54:53.140Z,99527.38
2022-10-01T04:58:57.657Z,99516.38
2022-10-01T05:02:59.657Z,99515.28
2022-10-01T05:07:01.542Z,99514.72
2022-10-01T05:11:03.442Z,99508.56
2022-10-01T05:15:08.744Z,99512.78
2022-10-01T05:19:10.814Z,99503.28
2022-10-01T05:23:12.672Z,99516.81
2022-10-01T05:27:14.560Z,99500.44
2022-10-01T05:31:16.914Z,99509.78
2022-10-01T05:35:18.929Z,99503.22
2022-10-01T05:39:20.937Z,99482.22
2022-10-01T05:43:22.793Z,99476.94
2022-10-01T05:47:24.787Z,99476.94
2022-10-01T05:51:27.303Z,99469.34
2022-10-01T05:55:33.500Z,99468.09
2022-10-01T05:59:35.643Z,99466.66
2022-10-01T06:04:05.508Z,99451.53
2022-10-01T06:08:10.341Z,99451.88
2022-10-01T06:12:19.040Z,99456.97
2022-10-01T06:16:39.852Z,99445.19
2022-10-01T06:20:49.488Z,99423.28
2022-10-01T06:25:22.651Z,99429.72
2022-10-01T06:36:28.974Z,99418.84
2022-10-01T06:41:38.537Z,99411.00
2022-10-01T07:06:39.914Z,99374.84
2022-10-01T07:10:42.246Z,99372.56
2022-10-01T07:14:44.161Z,99358.81
2022-10-01T07:18:46.102Z,99345.56
2022-10-01T07:22:49.656Z,99355.06
2022-10-01T07:26:51.766Z,99346.72
2022-10-01T07:31:10.546Z,99344.75
2022-10-01T07:40:27.662Z,99323.19
2022-10-01T07:44:34.547Z,99328.56
2022-10-01T07:48:36.945Z,99328.72
2022-10-01T07:52:39.236Z,99326.44
2022-10-01T07:56:42.367Z,99328.72
2022-10-01T08:00:45.005Z,99324.41
2022-10-01T08:05:05.444Z,99307.59
2022-10-01T08:09:07.240Z,99309.44
2022-10-01T08:13:16.681Z,99293.91
2022-10-01T08:17:19.030Z,99300.06
2022-10-01T08:21:49.647Z,99290.41
2022-10-01T08:25:51.587Z,99286.97
2022-10-01T08:30:33.125Z,99289.59
2022-10-01T08:34:35.605Z,99279.03
2022-10-01T08:38:37.913Z,99270.03
2022-10-01T08:43:07.399Z,99273.91
2022-10-01T08:47:42.784Z,99257.00
2022-10-01T08:52:33.666Z,99250.63
2022-10-01T08:56:39.423Z,99247.31
2022-10-01T09:00:45.621Z,99235.16
2022-10-01T09:05:25.042Z,99231.31
2022-10-01T09:09:45.254Z,99215.97
2022-10-01T09:14:56.523Z,99200.81
2022-10-01T09:19:31.990Z,99189.34
2022-10-01T09:23:48.071Z,99188.72
2022-10-01T09:27:52.087Z,99193.28
2022-10-01T09:31:54.234Z,99162.88
2022-10-01T09:37:07.449Z,99169.31
2022-10-01T09:41:20.308Z,99160.34
2022-10-01T09:45:27.340Z,99131.94
2022-10-01T09:49:52.405Z,99141.69
2022-10-01T10:22:43.807Z,99094.81
2022-10-01T10:28:09.031Z,99107.81
2022-10-01T10:32:25.518Z,99119.16
2022-10-01T10:37:30.841Z,99113.28
2022-10-01T10:42:08.671Z,99098.81
2022-10-01T10:46:10.882Z,99117.16
2022-10-01T10:51:46.121Z,99141.56
2022-10-01T10:56:37.167Z,99125.03
2022-10-01T11:07:03.265Z,99102.31
2022-10-01T11:17:12.520Z,99089.59
2022-10-01T11:21:41.892Z,99105.97
2022-10-01T11:26:02.886Z,99104.44
2022-10-01T11:30:23.946Z,99096.81
2022-10-01T11:34:42.801Z,99094.31
2022-10-01T11:39:06.400Z,99106.34
2022-10-01T11:43:43.115Z,99089.84
2022-10-01T11:47:58.474Z,99101.97
2022-10-01T11:52:49.176Z,99087.00
2022-10-01T11:57:14.862Z,99115.59
2022-10-01T12:01:47.636Z,99112.84
2022-10-01T12:05:49.696Z,99108.97
2022-10-01T12:10:23.640Z,99115.47
2022-10-01T12:14:33.047Z,99107.41
2022-10-01T12:19:19.455Z,99117.91
2022-10-01T12:23:53.904Z,99104.00
2022-10-01T12:28:04.765Z,99112.06
2022-10-01T12:32:58.826Z,99098.38
2022-10-01T12:37:52.219Z,99085.19
2022-10-01T12:42:54.932Z,99081.88
2022-10-01T12:47:16.075Z,99076.97
2022-10-01T12:51:53.611Z,99074.06
2022-10-01T12:56:10.483Z,99092.25
2022-10-01T13:00:20.454Z,99092.75
2022-10-01T13:04:37.734Z,99088.66
2022-10-01T13:09:20.748Z,99103.22
2022-10-01T13:13:57.386Z,99081.81
2022-10-01T13:18:47.913Z,99079.34
2022-10-01T13:39:32.106Z,99091.75
2022-10-01T13:44:10.265Z,99090.13
2022-10-01T13:48:31.377Z,99083.31
2022-10-01T13:52:55.930Z,99079.31
2022-10-01T13:57:26.067Z,99088.78
2022-10-01T14:01:38.519Z,99081.03
2022-10-01T14:05:43.076Z,99062.97
2022-10-01T14:09:47.939Z,99072.03
2022-10-01T14:14:59.590Z,99072.38
2022-10-01T14:18:57.771Z,99070.41
2022-10-01T14:23:16.033Z,99057.66
2022-10-01T14:27:47.795Z,99057.63
2022-10-01T14:32:08.472Z,99061.69
2022-10-01T14:36:28.559Z,99055.81
2022-10-01T14:40:48.883Z,99046.03
2022-10-01T14:44:50.874Z,99049.00
2022-10-01T14:49:01.855Z,99041.66
2022-10-01T14:53:06.112Z,99043.28
2022-10-01T14:57:24.789Z,99019.94
2022-10-01T15:01:26.719Z,99025.53
2022-10-01T15:05:34.228Z,99036.00
2022-10-01T15:09:36.234Z,99034.06
2022-10-01T15:13:40.238Z,99051.34
2022-10-01T15:17:42.091Z,99039.66
2022-10-01T15:22:04.130Z,99052.72
2022-10-01T15:26:20.398Z,99049.56
2022-10-01T15:30:22.731Z,99035.69
2022-10-01T15:34:25.806Z,99041.63
2022-10-01T15:38:30.985Z,99037.88
2022-10-01T15:42:34.833Z,99050.81
2022-10-01T15:46:37.234Z,99053.53
2022-10-01T15:50:39.295Z,99054.66
2022-10-01T15:54:45.431Z,99067.44
2022-10-01T15:59:14.084Z,99050.91
2022-10-01T16:08:34.535Z,99074.63
2022-10-01T16:13:01.967Z,99066.44
2022-10-01T16:17:17.034Z,99076.41
2022-10-01T16:21:19.514Z,99077.41
2022-10-01T16:25:25.078Z,99090.97
2022-10-01T16:29:27.151Z,99095.31
2022-10-01T16:33:31.736Z,99093.41
2022-10-01T16:37:35.493Z,99104.19
2022-10-01T16:42:23.486Z,99093.03
2022-10-01T16:46:29.021Z,99107.47
2022-10-01T16:50:31.125Z,99111.63
2022-10-01T16:54:32.978Z,99110.72
2022-10-01T16:59:27.869Z,99126.28
2022-10-01T17:03:33.849Z,99132.13
2022-10-01T17:07:46.789Z,99128.78
2022-10-01T17:11:56.741Z,99139.00
2022-10-01T17:15:59.174Z,99132.00
2022-10-01T17:20:01.272Z,99143.28
2022-10-01T17:24:03.645Z,99139.78
2022-10-01T17:28:15.473Z,99163.78
2022-10-01T17:32:24.884Z,99155.22
2022-10-01T17:36:40.759Z,99164.13
2022-10-01T17:41:21.665Z,99152.03
2022-10-01T17:45:44.214Z,99158.69
2022-10-01T17:49:49.544Z,99144.88
2022-10-01T17:53:57.881Z,99160.25
2022-10-01T17:58:17.739Z,99172.66
2022-10-01T18:02:55.454Z,99160.53
2022-10-01T18:06:59.796Z,99171.47
2022-10-01T18:22:01.647Z,99207.78
2022-10-01T18:31:50.887Z,99195.09
2022-10-01T18:35:54.333Z,99205.94
2022-10-01T18:40:27.961Z,99204.50
2022-10-01T18:44:32.346Z,99204.84
2022-10-01T18:49:02.505Z,99208.72
2022-10-01T18:53:40.617Z,99205.19
2022-10-01T18:57:47.540Z,99221.84
2022-10-01T19:02:41.341Z,99221.91
2022-10-01T19:07:03.038Z,99213.38
2022-10-01T19:12:04.399Z,99228.53
2022-10-01T19:16:37.581Z,99231.97
2022-10-01T19:21:03.005Z,99235.88
2022-10-01T19:25:53.598Z,99238.22
2022-10-01T19:30:30.122Z,99257.00
2022-10-01T19:35:00.461Z,99261.03
2022-10-01T19:39:23.054Z,99260.16
2022-10-01T19:43:45.650Z,99271.25
2022-10-01T19:48:03.590Z,99273.56
2022-10-01T19:52:18.380Z,99280.75
2022-10-01T19:56:26.212Z,99292.56
2022-10-01T20:00:28.157Z,99299.81
2022-10-01T20:04:36.836Z,99314.59
2022-10-01T20:09:30.937Z,99326.63
2022-10-01T20:14:10.605Z,99333.63
2022-10-01T20:18:37.585Z,99350.53
2022-10-01T20:23:16.546Z,99361.50
2022-10-01T20:27:33.267Z,99363.16
2022-10-01T20:32:03.177Z,99374.56
2022-10-01T20:36:17.134Z,99383.09
2022-10-01T20:40:44.900Z,99381.50
2022-10-01T20:44:46.709Z,99389.03
2022-10-01T20:48:52.387Z,99392.84
2022-10-01T20:53:53.186Z,99411.31
2022-10-01T20:58:02.321Z,99404.97
2022-10-01T21:02:42.112Z,99418.50
2022-10-01T21:06:53.328Z,99414.16
2022-10-01T21:10:59.530Z,99436.53
2022-10-01T21:15:01.514Z,99430.31
2022-10-01T21:19:14.133Z,99446.19
2022-10-01T21:23:29.834Z,99444.06
2022-10-01T21:28:28.092Z,99449.19
2022-10-01T21:37:44.389Z,99475.38
2022-10-01T21:42:14.741Z,99476.19
2022-10-01T21:46:51.243Z,99493.88
2022-10-01T21:51:01.287Z,99501.72
2022-10-01T21:55:21.834Z,99503.00
2022-10-01T21:59:35.209Z,99509.25
2022-10-01T22:04:18.193Z,99513.03
2022-10-01T22:08:25.779Z,99523.84
2022-10-01T22:12:28.723Z,99524.34
2022-10-01T22:16:46.028Z,99533.81
2022-10-01T22:20:48.166Z,99529.91
2022-10-01T22:24:52.799Z,99545.16
2022-10-01T22:28:55.083Z,99561.66
2022-10-01T22:33:03.242Z,99564.63
2022-10-01T22:37:18.660Z,99581.47
2022-10-01T22:41:46.440Z,99597.19
2022-10-01T22:46:28.488Z,99590.66
2022-10-01T22:50:54.327Z,99608.50
2022-10-01T22:55:11.075Z,99604.72
2022-10-01T22:59:50.433Z,99611.94
2022-10-01T23:04:03.143Z,99610.78
2022-10-01T23:08:33.689Z,99623.22
2022-10-01T23:13:23.968Z,99621.28
2022-10-01T23:18:02.252Z,99625.19
2022-10-01T23:22:35.676Z,99634.38
2022-10-01T23:27:08.689Z,99636.47
2022-10-01T23:31:36.643Z,99646.44
2022-10-01T23:35:52.905Z,99652.53
2022-10-01T23:40:13.102Z,99668.06
2022-10-01T23:44:25.497Z,99671.31
2022-10-01T23:48:30.407Z,99680.19
2022-10-01T23:52:45.687Z,99676.41
2022-10-01T23:57:02.957Z,99692.75
